sensor_id;sensor_type;location;lat;lon;timestamp;pressure;altitude;pressure_sealevel;temperature
27986;BMP280;15453;53.692;10.168;2022-07-23T00:02:19;101495.41;;;21.81
27986;BMP280;15453;53.692;10.168;2022-07-23T00:04:44;101497.34;;;21.80
27986;BMP280;15453;53.692;10.168;2022-07-23T00:09:35;101496.00;;;21.78
27986;BMP280;15453;53.692;10.168;2022-07-23T00:12:00;101498.78;;;21.78
27986;BMP280;15453;53.692;10.168;2022-07-23T00:14:25;101504.66;;;21.76
27986;BMP280;15453;53.692;10.168;2022-07-23T00:16:51;101489.09;;;21.75
27986;BMP280;15453;53.692;10.168;2022-07-23T00:19:16;101481.00;;;21.74
27986;BMP280;15453;53.692;10.168;2022-07-23T00:21:41;101478.53;;;21.72
27986;BMP280;15453;53.692;10.168;2022-07-23T00:24:06;101473.28;;;21.71
27986;BMP280;15453;53.692;10.168;2022-07-23T00:26:32;101475.22;;;21.70
27986;BMP280;15453;53.692;10.168;2022-07-23T00:28:57;101479.97;;;21.70
27986;BMP280;15453;53.692;10.168;2022-07-23T00:31:22;101469.09;;;21.68
27986;BMP280;15453;53.692;10.168;2022-07-23T00:33:48;101469.41;;;21.67
27986;BMP280;15453;53.692;10.168;2022-07-23T00:36:13;101465.28;;;21.64
27986;BMP280;15453;53.692;10.168;2022-07-23T00:38:38;101458.31;;;21.62
27986;BMP280;15453;53.692;10.168;2022-07-23T00:41:04;101456.69;;;21.61
27986;BMP280;15453;53.692;10.168;2022-07-23T00:43:29;101459.78;;;21.59
27986;BMP280;15453;53.692;10.168;2022-07-23T00:45:54;101476.00;;;21.57
27986;BMP280;15453;53.692;10.168;2022-07-23T00:48:19;101461.50;;;21.55
27986;BMP280;15453;53.692;10.168;2022-07-23T00:50:45;101470.19;;;21.54
27986;BMP280;15453;53.692;10.168;2022-07-23T00:53:10;101470.50;;;21.52
27986;BMP280;15453;53.692;10.168;2022-07-23T00:55:36;101469.16;;;21.50
27986;BMP280;15453;53.692;10.168;2022-07-23T00:58:02;101460.56;;;21.46
27986;BMP280;15453;53.692;10.168;2022-07-23T01:00:28;101460.06;;;21.44
27986;BMP280;15453;53.692;10.168;2022-07-23T01:02:53;101457.84;;;21.41
27986;BMP280;15453;53.692;10.168;2022-07-23T01:05:18;101452.38;;;21.36
27986;BMP280;15453;53.692;10.168;2022-07-23T01:07:47;101452.38;;;21.36
27986;BMP280;15453;53.692;10.168;2022-07-23T01:10:12;101459.69;;;21.32
27986;BMP280;15453;53.692;10.168;2022-07-23T01:12:56;101450.78;;;21.30
27986;BMP280;15453;53.692;10.168;2022-07-23T01:15:22;101452.22;;;21.28
27986;BMP280;15453;53.692;10.168;2022-07-23T01:17:47;101455.31;;;21.26
27986;BMP280;15453;53.692;10.168;2022-07-23T01:20:13;101449.53;;;21.23
27986;BMP280;15453;53.692;10.168;2022-07-23T01:22:38;101455.41;;;21.21
27986;BMP280;15453;53.692;10.168;2022-07-23T01:25:03;101447.34;;;21.20
27986;BMP280;15453;53.692;10.168;2022-07-23T01:27:29;101447.34;;;21.20
27986;BMP280;15453;53.692;10.168;2022-07-23T01:29:54;101434.34;;;21.15
27986;BMP280;15453;53.692;10.168;2022-07-23T01:32:21;101433.78;;;21.13
27986;BMP280;15453;53.692;10.168;2022-07-23T01:34:47;101430.19;;;21.13
27986;BMP280;15453;53.692;10.168;2022-07-23T01:37:12;101441.09;;;21.09
27986;BMP280;15453;53.692;10.168;2022-07-23T01:39:37;101435.00;;;21.07
27986;BMP280;15453;53.692;10.168;2022-07-23T01:42:02;101440.34;;;21.04
27986;BMP280;15453;53.692;10.168;2022-07-23T01:44:28;101449.31;;;21.01
27986;BMP280;15453;53.692;10.168;2022-07-23T01:46:53;101449.31;;;21.01
27986;BMP280;15453;53.692;10.168;2022-07-23T01:49:18;101449.41;;;20.96
27986;BMP280;15453;53.692;10.168;2022-07-23T01:51:43;101446.91;;;20.94
27986;BMP280;15453;53.692;10.168;2022-07-23T01:54:31;101438.31;;;20.91
27986;BMP280;15453;53.692;10.168;2022-07-23T01:56:57;101427.78;;;20.88
27986;BMP280;15453;53.692;10.168;2022-07-23T01:59:22;101436.41;;;20.86
27986;BMP280;15453;53.692;10.168;2022-07-23T02:01:48;101440.34;;;20.85
27986;BMP280;15453;53.692;10.168;2022-07-23T02:04:16;101434.53;;;20.82
27986;BMP280;15453;53.692;10.168;2022-07-23T02:06:41;101427.31;;;20.81
27986;BMP280;15453;53.692;10.168;2022-07-23T02:09:06;101418.13;;;20.80
27986;BMP280;15453;53.692;10.168;2022-07-23T02:11:32;101418.41;;;20.79
27986;BMP280;15453;53.692;10.168;2022-07-23T02:13:57;101418.41;;;20.79
27986;BMP280;15453;53.692;10.168;2022-07-23T02:16:22;101420.16;;;20.75
27986;BMP280;15453;53.692;10.168;2022-07-23T02:18:47;101426.03;;;20.73
27986;BMP280;15453;53.692;10.168;2022-07-23T02:21:13;101426.03;;;20.73
27986;BMP280;15453;53.692;10.168;2022-07-23T02:23:38;101407.44;;;20.69
27986;BMP280;15453;53.692;10.168;2022-07-23T02:26:03;101405.78;;;20.68
27986;BMP280;15453;53.692;10.168;2022-07-23T02:28:29;101403.28;;;20.66
27986;BMP280;15453;53.692;10.168;2022-07-23T02:30:54;101403.28;;;20.66
27986;BMP280;15453;53.692;10.168;2022-07-23T02:33:19;101402.75;;;20.64
27986;BMP280;15453;53.692;10.168;2022-07-23T02:35:44;101406.66;;;20.63
27986;BMP280;15453;53.692;10.168;2022-07-23T02:38:10;101403.38;;;20.61
27986;BMP280;15453;53.692;10.168;2022-07-23T02:40:35;101402.53;;;20.61
27986;BMP280;15453;53.692;10.168;2022-07-23T02:43:00;101397.25;;;20.59
27986;BMP280;15453;53.692;10.168;2022-07-23T02:45:25;101407.59;;;20.59
27986;BMP280;15453;53.692;10.168;2022-07-23T02:47:51;101407.88;;;20.57
27986;BMP280;15453;53.692;10.168;2022-07-23T02:50:16;101401.19;;;20.58
27986;BMP280;15453;53.692;10.168;2022-07-23T02:52:41;101407.88;;;20.57
27986;BMP280;15453;53.692;10.168;2022-07-23T02:55:07;101399.53;;;20.57
27986;BMP280;15453;53.692;10.168;2022-07-23T02:57:32;101400.34;;;20.58
27986;BMP280;15453;53.692;10.168;2022-07-23T02:59:58;101398.69;;;20.57
27986;BMP280;15453;53.692;10.168;2022-07-23T03:02:23;101394.78;;;20.58
27986;BMP280;15453;53.692;10.168;2022-07-23T03:04:49;101392.00;;;20.58
27986;BMP280;15453;53.692;10.168;2022-07-23T03:07:16;101394.19;;;20.61
27986;BMP280;15453;53.692;10.168;2022-07-23T03:09:42;101394.19;;;20.61
27986;BMP280;15453;53.692;10.168;2022-07-23T03:12:07;101390.88;;;20.59
27986;BMP280;15453;53.692;10.168;2022-07-23T03:14:32;101390.34;;;20.57
27986;BMP280;15453;53.692;10.168;2022-07-23T03:16:57;101392.00;;;20.58
27986;BMP280;15453;53.692;10.168;2022-07-23T03:19:24;101390.34;;;20.57
27986;BMP280;15453;53.692;10.168;2022-07-23T03:21:50;101388.41;;;20.57
27986;BMP280;15453;53.692;10.168;2022-07-23T03:24:15;101389.53;;;20.56
27986;BMP280;15453;53.692;10.168;2022-07-23T03:26:42;101391.19;;;20.57
27986;BMP280;15453;53.692;10.168;2022-07-23T03:29:07;101391.19;;;20.57
27986;BMP280;15453;53.692;10.168;2022-07-23T03:31:33;101390.13;;;20.53
27986;BMP280;15453;53.692;10.168;2022-07-23T03:33:58;101389.28;;;20.53
27986;BMP280;15453;53.692;10.168;2022-07-23T03:36:23;101388.47;;;20.52
27986;BMP280;15453;53.692;10.168;2022-07-23T03:38:49;101388.78;;;20.51
27986;BMP280;15453;53.692;10.168;2022-07-23T03:41:15;101380.13;;;20.52
27986;BMP280;15453;53.692;10.168;2022-07-23T03:43:40;101382.38;;;20.50
27986;BMP280;15453;53.692;10.168;2022-07-23T03:46:06;101389.00;;;20.54
27986;BMP280;15453;53.692;10.168;2022-07-23T03:48:31;101389.00;;;20.54
27986;BMP280;15453;53.692;10.168;2022-07-23T03:50:56;101383.22;;;20.51
27986;BMP280;15453;53.692;10.168;2022-07-23T03:53:21;101380.13;;;20.52
27986;BMP280;15453;53.692;10.168;2022-07-23T03:55:47;101390.13;;;20.53
27986;BMP280;15453;53.692;10.168;2022-07-23T03:58:12;101393.72;;;20.54
27986;BMP280;15453;53.692;10.168;2022-07-23T04:00:37;101387.03;;;20.55
27986;BMP280;15453;53.692;10.168;2022-07-23T04:03:02;101395.09;;;20.56
27986;BMP280;15453;53.692;10.168;2022-07-23T04:05:28;101392.31;;;20.56
27986;BMP280;15453;53.692;10.168;2022-07-23T04:07:53;101390.34;;;20.57
27986;BMP280;15453;53.692;10.168;2022-07-23T04:10:18;101391.47;;;20.56
27986;BMP280;15453;53.692;10.168;2022-07-23T04:12:44;101399.84;;;20.56
27986;BMP280;15453;53.692;10.168;2022-07-23T04:15:09;101396.75;;;20.57
27986;BMP280;15453;53.692;10.168;2022-07-23T04:17:35;101404.25;;;20.57
27986;BMP280;15453;53.692;10.168;2022-07-23T04:20:00;101401.47;;;20.57
27986;BMP280;15453;53.692;10.168;2022-07-23T04:22:26;101394.78;;;20.58
27986;BMP280;15453;53.692;10.168;2022-07-23T04:24:51;101403.06;;;20.63
27986;BMP280;15453;53.692;10.168;2022-07-23T04:27:16;101403.06;;;20.63
27986;BMP280;15453;53.692;10.168;2022-07-23T04:29:42;101404.19;;;20.62
27986;BMP280;15453;53.692;10.168;2022-07-23T04:32:07;101411.44;;;20.63
27986;BMP280;15453;53.692;10.168;2022-07-23T04:34:32;101400.81;;;20.65
27986;BMP280;15453;53.692;10.168;2022-07-23T04:36:57;101409.69;;;20.67
27986;BMP280;15453;53.692;10.168;2022-07-23T04:39:23;101403.50;;;20.70
27986;BMP280;15453;53.692;10.168;2022-07-23T04:41:48;101403.22;;;20.71
27986;BMP280;15453;53.692;10.168;2022-07-23T04:44:13;101414.06;;;20.73
27986;BMP280;15453;53.692;10.168;2022-07-23T04:46:38;101402.91;;;20.73
27986;BMP280;15453;53.692;10.168;2022-07-23T04:49:04;101410.97;;;20.74
27986;BMP280;15453;53.692;10.168;2022-07-23T04:51:29;101414.81;;;20.78
27986;BMP280;15453;53.692;10.168;2022-07-23T04:53:55;101414.81;;;20.78
27986;BMP280;15453;53.692;10.168;2022-07-23T04:56:20;101403.13;;;20.76
27986;BMP280;15453;53.692;10.168;2022-07-23T04:58:45;101408.69;;;20.76
27986;BMP280;15453;53.692;10.168;2022-07-23T05:01:10;101405.13;;;20.76
27986;BMP280;15453;53.692;10.168;2022-07-23T05:03:36;101416.47;;;20.79
27986;BMP280;15453;53.692;10.168;2022-07-23T05:06:01;101416.47;;;20.79
27986;BMP280;15453;53.692;10.168;2022-07-23T05:08:28;101414.28;;;20.76
27986;BMP280;15453;53.692;10.168;2022-07-23T05:10:53;101415.13;;;20.77
27986;BMP280;15453;53.692;10.168;2022-07-23T05:13:18;101415.13;;;20.77
27986;BMP280;15453;53.692;10.168;2022-07-23T05:15:44;101420.97;;;20.75
27986;BMP280;15453;53.692;10.168;2022-07-23T05:18:09;101418.78;;;20.72
27986;BMP280;15453;53.692;10.168;2022-07-23T05:20:35;101412.69;;;20.70
27986;BMP280;15453;53.692;10.168;2022-07-23T05:23:00;101414.13;;;20.68
27986;BMP280;15453;53.692;10.168;2022-07-23T05:25:26;101409.69;;;20.67
27986;BMP280;15453;53.692;10.168;2022-07-23T05:27:51;101406.06;;;20.66
27986;BMP280;15453;53.692;10.168;2022-07-23T05:30:16;101408.88;;;20.66
27986;BMP280;15453;53.692;10.168;2022-07-23T05:32:42;101408.03;;;20.66
27986;BMP280;15453;53.692;10.168;2022-07-23T05:35:07;101410.81;;;20.66
27986;BMP280;15453;53.692;10.168;2022-07-23T05:37:32;101409.69;;;20.67
27986;BMP280;15453;53.692;10.168;2022-07-23T05:40:05;101416.09;;;20.67
27986;BMP280;15453;53.692;10.168;2022-07-23T05:42:35;101423.91;;;20.65
27986;BMP280;15453;53.692;10.168;2022-07-23T05:45:00;101425.28;;;20.68
27986;BMP280;15453;53.692;10.168;2022-07-23T05:47:25;101433.63;;;20.68
27986;BMP280;15453;53.692;10.168;2022-07-23T05:49:51;101429.13;;;20.72
27986;BMP280;15453;53.692;10.168;2022-07-23T05:52:16;101429.13;;;20.72
27986;BMP280;15453;53.692;10.168;2022-07-23T05:54:41;101423.28;;;20.68
27986;BMP280;15453;53.692;10.168;2022-07-23T05:57:07;101419.41;;;20.69
27986;BMP280;15453;53.692;10.168;2022-07-23T05:59:32;101423.00;;;20.70
27986;BMP280;15453;53.692;10.168;2022-07-23T06:01:57;101424.34;;;20.72
27986;BMP280;15453;53.692;10.168;2022-07-23T06:04:23;101427.69;;;20.74
27986;BMP280;15453;53.692;10.168;2022-07-23T06:06:48;101420.16;;;20.75
27986;BMP280;15453;53.692;10.168;2022-07-23T06:09:13;101423.47;;;20.77
27986;BMP280;15453;53.692;10.168;2022-07-23T06:11:39;101429.88;;;20.77
27986;BMP280;15453;53.692;10.168;2022-07-23T06:14:05;101425.94;;;20.78
27986;BMP280;15453;53.692;10.168;2022-07-23T06:16:30;101429.50;;;20.84
27986;BMP280;15453;53.692;10.168;2022-07-23T06:18:55;101429.50;;;20.84
27986;BMP280;15453;53.692;10.168;2022-07-23T06:21:21;101428.94;;;20.82
27986;BMP280;15453;53.692;10.168;2022-07-23T06:23:46;101434.78;;;20.85
27986;BMP280;15453;53.692;10.168;2022-07-23T06:26:11;101435.53;;;20.91
27986;BMP280;15453;53.692;10.168;2022-07-23T06:28:36;101435.53;;;20.91
27986;BMP280;15453;53.692;10.168;2022-07-23T06:31:02;101423.00;;;20.88
27986;BMP280;15453;53.692;10.168;2022-07-23T06:33:27;101425.50;;;20.90
27986;BMP280;15453;53.692;10.168;2022-07-23T06:35:52;101414.09;;;20.91
27986;BMP280;15453;53.692;10.168;2022-07-23T06:38:17;101428.53;;;20.93
27986;BMP280;15453;53.692;10.168;2022-07-23T06:40:43;101433.00;;;20.94
27986;BMP280;15453;53.692;10.168;2022-07-23T06:43:09;101433.00;;;20.94
27986;BMP280;15453;53.692;10.168;2022-07-23T06:45:35;101430.50;;;20.93
27986;BMP280;15453;53.692;10.168;2022-07-23T06:48:00;101435.69;;;20.99
27986;BMP280;15453;53.692;10.168;2022-07-23T06:50:27;101435.69;;;20.99
27986;BMP280;15453;53.692;10.168;2022-07-23T06:52:52;101432.06;;;20.99
27986;BMP280;15453;53.692;10.168;2022-07-23T06:55:17;101436.19;;;21.01
27986;BMP280;15453;53.692;10.168;2022-07-23T06:57:43;101426.41;;;21.04
27986;BMP280;15453;53.692;10.168;2022-07-23T07:00:08;101423.03;;;21.07
27986;BMP280;15453;53.692;10.168;2022-07-23T07:02:34;101432.97;;;21.13
27986;BMP280;15453;53.692;10.168;2022-07-23T07:04:59;101435.38;;;21.19
27986;BMP280;15453;53.692;10.168;2022-07-23T07:07:24;101442.59;;;21.20
27986;BMP280;15453;53.692;10.168;2022-07-23T07:09:49;101442.59;;;21.20
27986;BMP280;15453;53.692;10.168;2022-07-23T07:12:15;101452.69;;;21.16
27986;BMP280;15453;53.692;10.168;2022-07-23T07:14:40;101452.69;;;21.16
27986;BMP280;15453;53.692;10.168;2022-07-23T07:17:05;101441.63;;;21.11
27986;BMP280;15453;53.692;10.168;2022-07-23T07:19:30;101450.00;;;21.11
27986;BMP280;15453;53.692;10.168;2022-07-23T07:21:56;101456.06;;;21.13
27986;BMP280;15453;53.692;10.168;2022-07-23T07:26:49;101453.97;;;21.24
27986;BMP280;15453;53.692;10.168;2022-07-23T07:29:14;101453.97;;;21.24
27986;BMP280;15453;53.692;10.168;2022-07-23T07:31:39;101451.47;;;21.22
27986;BMP280;15453;53.692;10.168;2022-07-23T07:34:04;101456.75;;;21.24
27986;BMP280;15453;53.692;10.168;2022-07-23T07:36:30;101451.09;;;21.29
27986;BMP280;15453;53.692;10.168;2022-07-23T07:38:55;101459.16;;;21.30
27986;BMP280;15453;53.692;10.168;2022-07-23T07:41:20;101463.81;;;21.35
27986;BMP280;15453;53.692;10.168;2022-07-23T07:43:49;101461.09;;;21.48
27986;BMP280;15453;53.692;10.168;2022-07-23T07:46:15;101461.09;;;21.48
27986;BMP280;15453;53.692;10.168;2022-07-23T07:48:40;101455.53;;;21.48
27986;BMP280;15453;53.692;10.168;2022-07-23T07:51:05;101460.72;;;21.55
27986;BMP280;15453;53.692;10.168;2022-07-23T07:53:31;101469.41;;;21.67
27986;BMP280;15453;53.692;10.168;2022-07-23T07:55:56;101453.19;;;21.69
27986;BMP280;15453;53.692;10.168;2022-07-23T07:58:22;101453.19;;;21.69
27986;BMP280;15453;53.692;10.168;2022-07-23T08:00:47;101450.66;;;21.72
27986;BMP280;15453;53.692;10.168;2022-07-23T08:03:13;101450.03;;;21.75
27986;BMP280;15453;53.692;10.168;2022-07-23T08:05:38;101452.72;;;21.80
27986;BMP280;15453;53.692;10.168;2022-07-23T08:08:03;101447.50;;;21.92
27986;BMP280;15453;53.692;10.168;2022-07-23T08:10:29;101447.50;;;21.92
27986;BMP280;15453;53.692;10.168;2022-07-23T08:12:57;101447.72;;;21.96
27986;BMP280;15453;53.692;10.168;2022-07-23T08:15:24;101452.66;;;21.99
27986;BMP280;15453;53.692;10.168;2022-07-23T08:17:50;101457.94;;;22.00
27986;BMP280;15453;53.692;10.168;2022-07-23T08:20:16;101459.28;;;22.03
27986;BMP280;15453;53.692;10.168;2022-07-23T08:22:56;101451.16;;;22.07
27986;BMP280;15453;53.692;10.168;2022-07-23T08:25:23;101449.69;;;22.09
27986;BMP280;15453;53.692;10.168;2022-07-23T08:27:49;101446.59;;;22.11
27986;BMP280;15453;53.692;10.168;2022-07-23T08:30:15;101453.00;;;22.25
27986;BMP280;15453;53.692;10.168;2022-07-23T08:33:14;101444.81;;;22.28
27986;BMP280;15453;53.692;10.168;2022-07-23T08:35:42;101455.50;;;22.26
27986;BMP280;15453;53.692;10.168;2022-07-23T08:38:10;101455.50;;;22.26
27986;BMP280;15453;53.692;10.168;2022-07-23T08:40:38;101450.63;;;22.32
27986;BMP280;15453;53.692;10.168;2022-07-23T08:43:06;101456.72;;;22.34
27986;BMP280;15453;53.692;10.168;2022-07-23T08:45:36;101456.63;;;22.39
27986;BMP280;15453;53.692;10.168;2022-07-23T08:48:01;101456.63;;;22.39
27986;BMP280;15453;53.692;10.168;2022-07-23T08:50:28;101454.47;;;22.36
27986;BMP280;15453;53.692;10.168;2022-07-23T08:52:53;101445.75;;;22.37
27986;BMP280;15453;53.692;10.168;2022-07-23T08:55:21;101456.84;;;22.42
27986;BMP280;15453;53.692;10.168;2022-07-23T08:57:51;101455.91;;;22.47
27986;BMP280;15453;53.692;10.168;2022-07-23T09:00:17;101459.63;;;22.56
27986;BMP280;15453;53.692;10.168;2022-07-23T09:02:45;101459.63;;;22.56
27986;BMP280;15453;53.692;10.168;2022-07-23T09:05:11;101458.53;;;22.57
27986;BMP280;15453;53.692;10.168;2022-07-23T09:08:03;101466.66;;;22.53
27986;BMP280;15453;53.692;10.168;2022-07-23T09:10:23;101467.63;;;22.49
27986;BMP280;15453;53.692;10.168;2022-07-23T09:12:49;101467.63;;;22.49
27986;BMP280;15453;53.692;10.168;2022-07-23T09:15:14;101458.19;;;22.45
27986;BMP280;15453;53.692;10.168;2022-07-23T09:17:42;101462.19;;;22.39
27986;BMP280;15453;53.692;10.168;2022-07-23T09:20:15;101456.63;;;22.39
27986;BMP280;15453;53.692;10.168;2022-07-23T09:22:45;101463.03;;;22.39
27986;BMP280;15453;53.692;10.168;2022-07-23T09:25:17;101465.63;;;22.36
27986;BMP280;15453;53.692;10.168;2022-07-23T09:30:12;101463.34;;;22.38
27986;BMP280;15453;53.692;10.168;2022-07-23T09:32:39;101464.69;;;22.40
27986;BMP280;15453;53.692;10.168;2022-07-23T09:35:04;101468.19;;;22.46
27986;BMP280;15453;53.692;10.168;2022-07-23T09:37:30;101467.09;;;22.47
27986;BMP280;15453;53.692;10.168;2022-07-23T09:40:04;101477.34;;;22.51
27986;BMP280;15453;53.692;10.168;2022-07-23T09:42:29;101465.31;;;22.51
27986;BMP280;15453;53.692;10.168;2022-07-23T09:44:56;101459.97;;;22.54
27986;BMP280;15453;53.692;10.168;2022-07-23T09:47:23;101462.13;;;22.57
27986;BMP280;15453;53.692;10.168;2022-07-23T09:50:08;101468.72;;;22.61
27986;BMP280;15453;53.692;10.168;2022-07-23T09:52:55;101457.78;;;22.65
27986;BMP280;15453;53.692;10.168;2022-07-23T09:55:31;101467.59;;;22.62
27986;BMP280;15453;53.692;10.168;2022-07-23T09:58:05;101469.56;;;22.62
27986;BMP280;15453;53.692;10.168;2022-07-23T10:00:32;101468.41;;;22.63
27986;BMP280;15453;53.692;10.168;2022-07-23T10:02:57;101477.94;;;22.62
27986;BMP280;15453;53.692;10.168;2022-07-23T10:05:24;101478.13;;;22.52
27986;BMP280;15453;53.692;10.168;2022-07-23T10:07:51;101478.13;;;22.52
27986;BMP280;15453;53.692;10.168;2022-07-23T10:10:17;101475.84;;;22.40
27986;BMP280;15453;53.692;10.168;2022-07-23T10:12:46;101482.44;;;22.31
27986;BMP280;15453;53.692;10.168;2022-07-23T10:15:30;101488.13;;;22.26
27986;BMP280;15453;53.692;10.168;2022-07-23T10:17:56;101491.03;;;22.21
27986;BMP280;15453;53.692;10.168;2022-07-23T10:20:21;101486.38;;;22.16
27986;BMP280;15453;53.692;10.168;2022-07-23T10:23:24;101485.03;;;22.13
27986;BMP280;15453;53.692;10.168;2022-07-23T10:25:59;101489.38;;;22.06
27986;BMP280;15453;53.692;10.168;2022-07-23T10:28:46;101497.44;;;22.08
27986;BMP280;15453;53.692;10.168;2022-07-23T10:39:40;101496.41;;;22.31
27986;BMP280;15453;53.692;10.168;2022-07-23T10:42:13;101496.41;;;22.31
27986;BMP280;15453;53.692;10.168;2022-07-23T10:44:41;101495.50;;;22.35
